createdAt,value
2022-07-30T01:08:37.898Z,67.40
2022-07-30T01:11:04.947Z,67.60
2022-07-30T01:13:33.063Z,67.80
2022-07-30T01:16:00.071Z,68.00
2022-07-30T01:18:32.439Z,68.10
2022-07-30T01:21:05.920Z,68.20
2022-07-30T01:23:38.492Z,68.20
2022-07-30T01:26:12.678Z,68.30
2022-07-30T01:28:42.512Z,68.30
2022-07-30T01:31:12.266Z,68.30
2022-07-30T01:33:47.133Z,68.20
2022-07-30T01:36:24.186Z,68.40
2022-07-30T01:38:54.225Z,68.20
2022-07-30T01:41:26.149Z,68.10
2022-07-30T01:44:03.328Z,68.20
2022-07-30T01:46:30.827Z,68.40
2022-07-30T01:49:01.146Z,68.60
2022-07-30T01:51:33.363Z,68.80
2022-07-30T01:54:08.360Z,69.00
2022-07-30T01:56:35.435Z,69.20
2022-07-30T01:59:02.329Z,69.50
2022-07-30T02:01:29.568Z,69.60
2022-07-30T02:03:56.780Z,69.90
2022-07-30T02:06:36.401Z,70.10
2022-07-30T02:09:12.434Z,70.30
2022-07-30T02:11:45.033Z,70.50
2022-07-30T02:14:22.097Z,70.60
2022-07-30T02:17:01.616Z,70.70
2022-07-30T02:19:36.856Z,70.60
2022-07-30T02:22:09.568Z,70.70
2022-07-30T02:24:39.304Z,70.60
2022-07-30T02:27:12.640Z,70.60
2022-07-30T02:29:46.481Z,70.70
2022-07-30T02:32:15.270Z,70.70
2022-07-30T02:34:46.180Z,70.80
2022-07-30T02:37:13.046Z,71.00
2022-07-30T02:39:40.520Z,71.10
2022-07-30T02:42:07.772Z,71.20
2022-07-30T02:44:34.795Z,71.50
2022-07-30T02:47:04.563Z,71.70
2022-07-30T02:49:32.178Z,71.90
2022-07-30T02:52:01.488Z,72.20
2022-07-30T02:54:30.735Z,72.20
2022-07-30T02:57:02.001Z,72.20
2022-07-30T02:59:29.359Z,72.20
2022-07-30T03:01:56.234Z,72.20
2022-07-30T03:04:29.196Z,72.20
2022-07-30T03:07:26.043Z,72.10
2022-07-30T03:09:54.849Z,72.30
2022-07-30T03:12:21.703Z,72.00
2022-07-30T03:14:48.647Z,72.20
2022-07-30T03:17:21.935Z,72.30
2022-07-30T03:19:48.862Z,72.50
2022-07-30T03:22:33.217Z,72.60
2022-07-30T03:25:30.974Z,72.60
2022-07-30T03:28:13.701Z,72.60
2022-07-30T03:30:40.851Z,72.60
2022-07-30T03:33:07.674Z,72.70
2022-07-30T03:35:37.506Z,72.80
2022-07-30T03:38:05.687Z,72.80
2022-07-30T03:40:32.635Z,72.80
2022-07-30T03:42:59.593Z,73.00
2022-07-30T03:45:29.191Z,73.00
2022-07-30T03:47:56.129Z,73.00
2022-07-30T03:50:23.202Z,72.90
2022-07-30T03:52:50.410Z,72.90
2022-07-30T03:55:17.362Z,72.80
2022-07-30T03:57:44.395Z,72.60
2022-07-30T04:00:22.348Z,72.70
2022-07-30T04:02:52.527Z,72.80
2022-07-30T04:05:19.519Z,72.80
2022-07-30T04:07:46.459Z,72.90
2022-07-30T04:10:14.232Z,72.80
2022-07-30T04:12:44.110Z,72.90
2022-07-30T04:16:05.636Z,72.80
2022-07-30T04:18:00.835Z,73.00
2022-07-30T04:20:40.360Z,73.00
2022-07-30T04:23:07.408Z,73.10
2022-07-30T04:25:34.213Z,73.30
2022-07-30T04:28:03.733Z,73.40
2022-07-30T04:30:31.338Z,73.70
2022-07-30T04:32:58.363Z,73.80
2022-07-30T04:35:50.662Z,73.80
2022-07-30T04:38:16.029Z,73.90
2022-07-30T04:40:42.982Z,74.00
2022-07-30T04:43:09.855Z,74.00
2022-07-30T04:45:36.738Z,73.80
2022-07-30T04:48:03.813Z,73.70
2022-07-30T04:50:36.606Z,73.70
2022-07-30T04:53:03.560Z,73.70
2022-07-30T04:58:35.314Z,73.70
2022-07-30T05:01:02.468Z,73.70
2022-07-30T05:03:32.457Z,73.70
2022-07-30T05:05:59.330Z,73.80
2022-07-30T05:08:26.280Z,73.70
2022-07-30T05:10:53.737Z,73.80
2022-07-30T05:13:34.455Z,73.90
2022-07-30T05:16:05.253Z,74.20
2022-07-30T05:18:32.076Z,74.10
2022-07-30T05:21:02.201Z,74.30
2022-07-30T05:26:58.701Z,74.40
2022-07-30T05:29:26.002Z,74.20
2022-07-30T05:32:03.396Z,74.30
2022-07-30T05:34:30.933Z,74.30
2022-07-30T05:37:00.834Z,74.40
2022-07-30T05:39:30.783Z,74.30
2022-07-30T05:41:57.666Z,74.30
2022-07-30T05:44:27.447Z,74.30
2022-07-30T05:46:57.170Z,74.20
2022-07-30T05:49:24.672Z,74.20
2022-07-30T05:51:57.275Z,74.10
2022-07-30T05:54:24.869Z,73.80
2022-07-30T05:56:51.702Z,73.60
2022-07-30T05:59:18.731Z,73.40
2022-07-30T06:01:45.741Z,73.30
2022-07-30T06:04:12.969Z,73.10
2022-07-30T06:06:40.001Z,73.00
2022-07-30T06:09:07.005Z,72.70
2022-07-30T06:11:33.871Z,72.60
2022-07-30T06:14:00.715Z,72.40
2022-07-30T06:16:27.829Z,72.00
2022-07-30T06:19:04.032Z,71.80
2022-07-30T06:22:05.609Z,71.60
2022-07-30T06:24:43.513Z,71.40
2022-07-30T06:27:15.545Z,71.00
2022-07-30T06:29:57.597Z,70.90
2022-07-30T06:32:25.320Z,70.70
2022-07-30T06:34:59.801Z,70.60
2022-07-30T06:37:59.348Z,70.60
2022-07-30T06:41:01.992Z,70.30
2022-07-30T06:43:41.564Z,70.00
2022-07-30T06:46:21.236Z,69.80
2022-07-30T06:48:48.258Z,69.70
2022-07-30T06:51:15.190Z,69.60
2022-07-30T06:53:42.741Z,69.50
2022-07-30T06:59:57.173Z,69.10
2022-07-30T07:02:27.313Z,68.90
2022-07-30T07:04:57.274Z,68.70
2022-07-30T07:07:40.681Z,68.50
2022-07-30T07:10:10.611Z,68.50
2022-07-30T07:12:38.311Z,68.30
2022-07-30T07:15:06.767Z,68.00
2022-07-30T07:17:34.314Z,67.80
2022-07-30T07:20:04.153Z,67.70
2022-07-30T07:22:31.501Z,67.40
2022-07-30T07:25:02.149Z,67.10
2022-07-30T07:27:43.595Z,66.90
2022-07-30T07:30:34.671Z,66.70
2022-07-30T07:33:17.482Z,66.50
2022-07-30T07:35:49.446Z,65.90
2022-07-30T07:38:18.108Z,65.90
2022-07-30T07:40:45.487Z,64.50
2022-07-30T07:43:12.649Z,62.40
2022-07-30T07:45:39.870Z,60.70
2022-07-30T07:48:07.205Z,59.30
2022-07-30T07:50:35.365Z,57.50
2022-07-30T07:53:02.421Z,56.30
2022-07-30T07:55:31.663Z,54.80
2022-07-30T07:58:18.752Z,53.10
2022-07-30T08:00:55.819Z,50.80
2022-07-30T08:03:23.067Z,50.50
2022-07-30T08:06:05.971Z,49.80
2022-07-30T08:08:34.613Z,48.60
2022-07-30T08:11:05.199Z,47.60
2022-07-30T08:13:49.271Z,46.00
2022-07-30T08:16:20.270Z,45.10
2022-07-30T08:18:47.231Z,44.80
2022-07-30T08:21:21.649Z,44.20
2022-07-30T08:23:48.604Z,43.80
2022-07-30T08:26:15.498Z,43.60
2022-07-30T08:28:42.533Z,42.90
2022-07-30T08:31:10.106Z,42.10
2022-07-30T08:34:13.051Z,41.40
2022-07-30T08:36:43.268Z,40.70
2022-07-30T08:39:11.029Z,40.30
2022-07-30T08:41:44.126Z,40.00
2022-07-30T08:44:28.064Z,39.20
2022-07-30T08:46:59.586Z,37.10
2022-07-30T08:49:52.273Z,37.30
2022-07-30T08:58:54.273Z,36.90
2022-07-30T09:01:21.221Z,36.90
2022-07-30T09:03:47.969Z,35.90
2022-07-30T09:06:15.299Z,35.80
2022-07-30T09:11:39.324Z,33.70
2022-07-30T09:14:15.283Z,34.40
2022-07-30T09:16:45.590Z,33.90
2022-07-30T09:19:21.353Z,34.90
2022-07-30T09:21:58.026Z,35.00
2022-07-30T09:24:30.702Z,34.90
2022-07-30T09:26:59.450Z,35.30
2022-07-30T09:29:30.532Z,35.30
2022-07-30T09:32:07.156Z,35.80
2022-07-30T09:34:38.539Z,35.60
2022-07-30T09:37:09.095Z,35.30
2022-07-30T09:39:56.568Z,35.10
2022-07-30T09:42:27.839Z,34.80
2022-07-30T09:45:15.262Z,35.20
2022-07-30T09:47:43.953Z,35.30
2022-07-30T09:50:17.841Z,35.50
2022-07-30T09:53:06.305Z,35.50
2022-07-30T09:55:34.884Z,35.80
2022-07-30T09:58:05.745Z,36.10
2022-07-30T10:00:34.231Z,35.90
2022-07-30T10:03:21.308Z,36.60
2022-07-30T10:05:56.088Z,36.50
2022-07-30T10:08:45.928Z,36.70
2022-07-30T10:11:22.760Z,37.00
2022-07-30T10:13:53.871Z,37.00
2022-07-30T10:16:20.827Z,36.90
2022-07-30T10:18:51.279Z,36.40
2022-07-30T10:21:20.352Z,36.40
2022-07-30T10:30:17.156Z,36.90
2022-07-30T10:32:53.004Z,36.30
2022-07-30T10:35:38.428Z,36.00
2022-07-30T10:38:09.510Z,36.20
2022-07-30T10:40:59.808Z,36.70
2022-07-30T10:44:03.417Z,36.80
2022-07-30T10:50:33.667Z,35.50
2022-07-30T10:53:40.647Z,35.00
2022-07-30T10:56:14.250Z,33.80
2022-07-30T10:59:28.829Z,34.20
2022-07-30T11:01:58.634Z,33.60
2022-07-30T11:04:29.423Z,34.30
2022-07-30T11:07:32.373Z,34.10
2022-07-30T11:10:05.920Z,34.60
2022-07-30T11:12:53.410Z,34.60
2022-07-30T11:15:23.213Z,34.60
2022-07-30T11:18:12.775Z,34.90
2022-07-30T11:20:48.855Z,36.00
2022-07-30T11:24:01.809Z,36.10
2022-07-30T11:27:10.123Z,36.50
2022-07-30T11:33:10.839Z,36.50
2022-07-30T11:36:14.750Z,37.10
2022-07-30T11:39:05.402Z,37.40
2022-07-30T11:41:36.256Z,37.70
2022-07-30T11:44:22.036Z,38.00
2022-07-30T11:47:32.986Z,38.00
2022-07-30T11:53:11.043Z,36.50
2022-07-30T11:58:39.884Z,35.80
2022-07-30T12:01:43.007Z,35.10
2022-07-30T12:04:31.224Z,34.80
2022-07-30T12:18:11.148Z,32.80
2022-07-30T12:26:46.071Z,30.20
2022-07-30T13:02:12.458Z,28.20
2022-07-30T13:08:03.805Z,27.50
2022-07-30T13:20:40.765Z,28.00
2022-07-30T13:40:32.271Z,27.70
2022-07-30T13:46:34.158Z,27.70
2022-07-30T14:03:49.855Z,29.50
2022-07-30T14:17:16.375Z,31.80
2022-07-30T14:23:30.531Z,32.60
2022-07-30T14:26:06.151Z,32.70
2022-07-30T14:29:10.399Z,33.10
2022-07-30T14:32:04.992Z,33.50
2022-07-30T14:34:38.710Z,34.40
2022-07-30T14:37:17.691Z,34.60
2022-07-30T14:39:52.157Z,34.90
2022-07-30T14:46:24.247Z,35.40
2022-07-30T14:49:35.329Z,35.90
2022-07-30T14:52:32.784Z,35.80
2022-07-30T15:05:31.921Z,36.20
2022-07-30T15:08:24.052Z,36.20
2022-07-30T15:10:51.637Z,36.60
2022-07-30T15:13:50.881Z,36.20
2022-07-30T15:16:32.403Z,36.00
2022-07-30T15:21:54.422Z,35.40
2022-07-30T15:27:24.787Z,35.80
2022-07-30T15:33:29.916Z,35.50
2022-07-30T15:36:31.620Z,35.60
2022-07-30T15:39:55.403Z,36.00
2022-07-30T15:45:18.070Z,36.50
2022-07-30T15:50:37.965Z,36.10
2022-07-30T15:53:34.812Z,36.40
2022-07-30T15:56:06.694Z,36.70
2022-07-30T15:58:57.392Z,36.70
2022-07-30T16:01:50.837Z,36.40
2022-07-30T16:04:30.406Z,36.40
2022-07-30T16:11:04.340Z,37.00
2022-07-30T16:16:15.329Z,36.80
2022-07-30T16:18:50.777Z,36.60
2022-07-30T16:38:12.729Z,36.10
2022-07-30T16:40:41.398Z,36.20
2022-07-30T16:43:33.339Z,36.30
2022-07-30T16:46:30.807Z,35.90
2022-07-30T16:48:58.731Z,35.80
2022-07-30T16:51:26.006Z,35.60
2022-07-30T16:53:52.972Z,35.70
2022-07-30T17:13:18.296Z,35.30
2022-07-30T18:35:13.465Z,38.30
2022-07-30T18:37:44.293Z,39.00
2022-07-30T18:40:24.139Z,40.00
2022-07-30T18:42:52.894Z,41.00
2022-07-30T18:45:21.818Z,41.60
2022-07-30T18:47:52.510Z,42.20
2022-07-30T18:50:24.308Z,42.70
2022-07-30T18:52:56.333Z,43.10
2022-07-30T18:55:33.304Z,43.60
2022-07-30T18:58:04.250Z,43.80
2022-07-30T19:00:36.343Z,44.00
2022-07-30T19:03:12.557Z,44.20
2022-07-30T19:05:50.094Z,44.40
2022-07-30T19:08:29.119Z,44.50
2022-07-30T19:13:57.227Z,44.40
2022-07-30T19:24:47.671Z,44.10
2022-07-30T19:30:44.669Z,43.70
2022-07-30T19:33:20.285Z,43.60
2022-07-30T19:35:50.608Z,43.30
2022-07-30T19:38:21.858Z,43.30
2022-07-30T19:40:57.503Z,43.30
2022-07-30T19:43:28.643Z,43.30
2022-07-30T19:46:00.505Z,43.50
2022-07-30T19:48:29.329Z,43.40
2022-07-30T19:50:58.824Z,43.40
2022-07-30T19:53:26.282Z,43.30
2022-07-30T19:56:01.007Z,43.30
2022-07-30T19:58:28.055Z,43.50
2022-07-30T20:00:56.625Z,43.40
2022-07-30T20:03:31.821Z,43.60
2022-07-30T20:06:00.546Z,43.50
2022-07-30T20:08:28.321Z,43.60
2022-07-30T20:11:34.846Z,43.60
2022-07-30T20:14:09.541Z,43.60
2022-07-30T20:16:37.087Z,43.80
2022-07-30T20:19:04.337Z,43.80
2022-07-30T20:21:56.089Z,43.80
2022-07-30T20:32:06.845Z,43.90
2022-07-30T20:35:05.684Z,43.90
2022-07-30T20:38:31.723Z,43.90
2022-07-30T20:41:12.693Z,43.80
2022-07-30T20:49:46.008Z,44.10
2022-07-30T20:52:15.425Z,44.20
2022-07-30T20:54:57.695Z,44.00
2022-07-30T20:58:07.006Z,44.00
2022-07-30T21:01:02.941Z,44.00
2022-07-30T21:12:18.285Z,44.00
2022-07-30T21:14:49.687Z,44.00
2022-07-30T21:20:28.050Z,44.00
2022-07-30T21:28:59.278Z,44.30
2022-07-30T21:36:56.945Z,44.50
2022-07-30T21:39:31.892Z,44.90
2022-07-30T21:42:10.778Z,45.20
2022-07-30T21:44:54.437Z,45.50
2022-07-30T21:50:26.865Z,46.00
2022-07-30T21:53:29.860Z,46.20
2022-07-30T21:56:17.918Z,46.50
2022-07-30T21:58:57.412Z,46.70
2022-07-30T22:04:34.797Z,47.20
2022-07-30T22:07:01.894Z,47.20
2022-07-30T22:09:33.554Z,47.40
2022-07-30T22:12:06.472Z,47.70
2022-07-30T22:14:36.906Z,47.80
2022-07-30T22:17:04.340Z,47.90
2022-07-30T22:19:31.423Z,48.00
2022-07-30T22:21:59.138Z,48.10
2022-07-30T22:24:34.958Z,48.10
2022-07-30T22:27:10.151Z,48.30
2022-07-30T22:29:45.802Z,48.50
2022-07-30T22:32:21.547Z,48.60
2022-07-30T22:34:53.755Z,48.60
2022-07-30T22:37:59.553Z,48.70
2022-07-30T22:40:36.457Z,48.90
2022-07-30T22:43:07.790Z,48.80
2022-07-30T22:45:47.685Z,49.10
2022-07-30T22:48:16.474Z,49.40
2022-07-30T22:50:43.123Z,49.50
2022-07-30T22:54:02.835Z,49.80
2022-07-30T22:55:56.660Z,50.10
2022-07-30T22:58:26.240Z,50.50
2022-07-30T23:00:53.381Z,50.80
2022-07-30T23:03:20.144Z,51.10
2022-07-30T23:05:54.993Z,51.20
2022-07-30T23:08:29.425Z,51.30
2022-07-30T23:10:57.589Z,51.50
2022-07-30T23:13:24.374Z,51.60
2022-07-30T23:15:51.202Z,51.90
2022-07-30T23:18:17.861Z,52.00
2022-07-30T23:20:44.470Z,52.30
2022-07-30T23:23:11.131Z,52.50
2022-07-30T23:25:38.726Z,52.90
2022-07-30T23:28:06.169Z,53.20
2022-07-30T23:30:34.178Z,53.30
2022-07-30T23:33:01.178Z,53.50
2022-07-30T23:35:27.795Z,53.60
2022-07-30T23:37:56.528Z,54.00
2022-07-30T23:40:23.274Z,54.00
2022-07-30T23:42:49.993Z,54.30
2022-07-30T23:45:17.338Z,54.30
2022-07-30T23:48:00.738Z,54.40
2022-07-30T23:50:29.437Z,54.50
2022-07-30T23:52:56.121Z,54.90
2022-07-30T23:55:22.910Z,55.30
2022-07-30T23:57:49.530Z,55.70
